Time;durP1;ratioP1;P1;durP2;ratioP2;P2;SDS_P1;SDS_P2;PMS_P1;PMS_P2;Temp;Humidity;BMP_temperature;BMP_pressure;BME280_temperature;BME280_humidity;BME280_pressure;Samples;Min_cycle;Max_cycle;Signal;HPM_P1;HPM_P2
2022/04/10 00:00:08;;;;;;;9.10;7.60;;;14.10;69.90;;;;;;5073151;28;20464;-59
2022/04/10 00:02:35;;;;;;;12.85;7.90;;;14.00;69.80;;;;;;5067363;28;20491;-60
2022/04/10 00:05:01;;;;;;;11.48;8.15;;;14.00;69.90;;;;;;5073916;28;20017;-59
2022/04/10 00:07:27;;;;;;;13.98;7.93;;;14.00;69.80;;;;;;5075086;28;20499;-59
2022/04/10 00:09:52;;;;;;;12.25;7.93;;;14.00;69.80;;;;;;5075093;28;20035;-59
2022/04/10 00:12:18;;;;;;;10.40;8.23;;;14.00;70.00;;;;;;5073925;28;20089;-59
2022/04/10 00:14:45;;;;;;;13.55;7.72;;;14.00;70.00;;;;;;5074880;28;20037;-59
2022/04/10 00:17:11;;;;;;;13.95;8.05;;;14.00;70.00;;;;;;5073319;28;20028;-59
2022/04/10 00:19:38;;;;;;;13.05;8.15;;;14.00;69.90;;;;;;5071016;28;20090;-59
2022/04/10 00:22:04;;;;;;;11.18;7.60;;;14.00;69.90;;;;;;5074921;28;20368;-60
2022/04/10 00:24:29;;;;;;;12.23;7.97;;;14.00;70.10;;;;;;5072746;28;20093;-59
2022/04/10 00:26:55;;;;;;;10.90;8.25;;;14.00;70.20;;;;;;5072499;28;20017;-59
2022/04/10 00:29:20;;;;;;;12.75;7.50;;;14.00;70.40;;;;;;5074458;28;20032;-59
2022/04/10 00:31:46;;;;;;;9.13;7.97;;;14.00;70.80;;;;;;5074753;28;20017;-59
2022/04/10 00:34:13;;;;;;;11.35;9.00;;;14.00;71.60;;;;;;5073142;28;20373;-60
2022/04/10 00:36:38;;;;;;;11.73;10.27;;;13.90;72.60;;;;;;5074401;28;20159;-59
2022/04/10 00:39:04;;;;;;;14.15;11.10;;;13.80;73.20;;;;;;5070026;28;20536;-59
2022/04/10 00:41:32;;;;;;;15.00;11.10;;;13.70;73.80;;;;;;5069732;28;20518;-60
2022/04/10 00:44:03;;;;;;;12.05;10.50;;;13.60;74.30;;;;;;5073131;28;20012;-59
2022/04/10 00:46:28;;;;;;;10.47;9.37;;;13.50;74.70;;;;;;5072901;28;20115;-59
2022/04/10 00:48:54;;;;;;;10.70;8.82;;;13.40;75.00;;;;;;5074354;28;20052;-59
2022/04/10 00:54:04;;;;;;;8.60;7.70;;;13.30;75.50;;;;;;5063241;28;20117;-59
2022/04/10 00:56:30;;;;;;;8.68;7.28;;;13.20;75.90;;;;;;5074143;28;20036;-58
2022/04/10 00:58:56;;;;;;;9.07;7.20;;;13.10;76.10;;;;;;5074130;28;20043;-59
2022/04/10 01:01:22;;;;;;;8.52;7.60;;;13.00;76.50;;;;;;5073928;28;20029;-60
2022/04/10 01:03:47;;;;;;;8.07;7.18;;;12.90;76.80;;;;;;5072187;28;20017;-59
2022/04/10 01:06:13;;;;;;;8.00;7.07;;;12.80;77.30;;;;;;5074007;28;20048;-59
2022/04/10 01:08:39;;;;;;;8.55;6.60;;;12.80;77.60;;;;;;5068250;28;20112;-59
2022/04/10 01:11:06;;;;;;;8.18;6.20;;;12.80;77.80;;;;;;5072804;28;20445;-59
2022/04/10 01:13:32;;;;;;;6.03;5.25;;;12.70;78.00;;;;;;5073909;28;20327;-59
2022/04/10 01:15:58;;;;;;;5.35;4.68;;;12.70;77.90;;;;;;5073826;28;20028;-59
2022/04/10 01:18:25;;;;;;;5.50;4.50;;;12.70;77.80;;;;;;5073799;28;20032;-59
2022/04/10 01:20:51;;;;;;;4.95;4.20;;;12.60;77.80;;;;;;5072416;28;20024;-59
2022/04/10 01:23:17;;;;;;;5.18;4.20;;;12.50;77.90;;;;;;5073726;28;20104;-59
2022/04/10 01:25:44;;;;;;;5.80;4.22;;;12.50;77.90;;;;;;5070965;28;20036;-59
2022/04/10 01:28:13;;;;;;;4.50;3.90;;;12.50;78.00;;;;;;5064617;28;20029;-59
2022/04/10 01:30:39;;;;;;;5.63;4.20;;;12.50;78.10;;;;;;5063986;28;20025;-59
2022/04/10 01:33:05;;;;;;;4.03;3.60;;;12.40;78.90;;;;;;5073746;28;20499;-59
2022/04/10 01:35:32;;;;;;;4.07;3.67;;;12.50;78.30;;;;;;5073554;28;20480;-60
2022/04/10 01:38:00;;;;;;;4.88;4.35;;;12.40;78.40;;;;;;5073205;28;20044;-59
2022/04/10 01:40:26;;;;;;;6.28;4.40;;;12.40;78.40;;;;;;5072629;28;20051;-60
2022/04/10 01:42:52;;;;;;;5.10;4.40;;;12.40;78.50;;;;;;5072522;28;20024;-59
2022/04/10 01:45:17;;;;;;;4.68;3.80;;;12.40;78.60;;;;;;5073011;28;20016;-59
2022/04/10 01:47:43;;;;;;;4.60;3.55;;;12.40;78.50;;;;;;5061928;28;20150;-59
2022/04/10 01:50:10;;;;;;;4.10;3.60;;;12.40;78.50;;;;;;5072989;28;20171;-59
2022/04/10 01:52:36;;;;;;;5.40;3.95;;;12.30;78.30;;;;;;5073243;28;20024;-59
2022/04/10 01:55:02;;;;;;;5.03;3.85;;;12.30;78.50;;;;;;5071725;28;20036;-59
2022/04/10 01:57:28;;;;;;;4.60;4.20;;;12.30;78.70;;;;;;5073001;28;20029;-59
2022/04/10 01:59:53;;;;;;;4.10;3.67;;;12.30;78.90;;;;;;5065297;28;20054;-59
2022/04/10 02:02:19;;;;;;;4.45;3.45;;;12.30;78.90;;;;;;5072601;28;20029;-59
2022/04/10 02:04:44;;;;;;;3.67;3.35;;;12.30;79.60;;;;;;5072899;28;20094;-60
2022/04/10 02:07:10;;;;;;;3.00;2.80;;;12.30;78.90;;;;;;5072395;28;20051;-58
2022/04/10 02:09:36;;;;;;;4.28;3.15;;;12.20;78.80;;;;;;5072831;28;20032;-59
2022/04/10 02:12:01;;;;;;;3.47;3.08;;;12.20;78.80;;;;;;5072711;28;20028;-59
2022/04/10 02:14:27;;;;;;;3.40;3.10;;;12.20;78.70;;;;;;5072773;28;20028;-59
2022/04/10 02:16:52;;;;;;;3.33;2.85;;;12.20;78.80;;;;;;5067196;28;20112;-59
2022/04/10 02:19:18;;;;;;;2.70;2.50;;;12.10;78.70;;;;;;5071247;28;20025;-59
2022/04/10 02:21:43;;;;;;;3.10;2.80;;;12.10;78.50;;;;;;5072810;28;20044;-60
2022/04/10 02:24:09;;;;;;;3.33;3.03;;;12.10;78.60;;;;;;5072565;28;20021;-59
2022/04/10 02:26:35;;;;;;;2.90;2.70;;;12.00;78.70;;;;;;5059352;28;20024;-59
2022/04/10 02:29:00;;;;;;;4.00;3.50;;;12.00;79.00;;;;;;5072476;28;20032;-59
2022/04/10 02:31:26;;;;;;;5.40;3.40;;;12.00;79.20;;;;;;5072414;28;20491;-59
2022/04/10 02:33:51;;;;;;;3.22;2.92;;;12.00;79.20;;;;;;5065127;28;20032;-59
2022/04/10 02:36:19;;;;;;;3.63;3.15;;;12.00;79.40;;;;;;5063555;28;20134;-59
2022/04/10 02:38:44;;;;;;;3.25;2.95;;;11.90;79.30;;;;;;5070984;28;20045;-59
2022/04/10 02:41:10;;;;;;;3.53;3.22;;;11.90;79.40;;;;;;5072182;28;20099;-60
2022/04/10 02:43:38;;;;;;;3.25;2.95;;;11.90;80.30;;;;;;5072299;28;20104;-59
2022/04/10 02:46:04;;;;;;;3.30;2.70;;;11.90;79.70;;;;;;5052296;28;20107;-59
2022/04/10 02:48:30;;;;;;;3.58;3.28;;;11.90;79.90;;;;;;5072255;28;20095;-59
2022/04/10 02:50:55;;;;;;;3.17;2.97;;;11.80;79.90;;;;;;5064148;28;20027;-59
2022/04/10 02:53:21;;;;;;;3.47;3.17;;;11.80;80.10;;;;;;5070927;28;20032;-59
2022/04/10 02:55:46;;;;;;;2.97;2.78;;;11.80;80.30;;;;;;5072295;28;20039;-59
2022/04/10 02:58:12;;;;;;;3.47;3.20;;;11.80;80.40;;;;;;5072038;28;20127;-59
2022/04/10 03:00:37;;;;;;;3.55;3.25;;;11.70;80.50;;;;;;5072113;28;20024;-59
2022/04/10 03:03:03;;;;;;;3.80;3.40;;;11.70;80.70;;;;;;5069915;28;20024;-62
2022/04/10 03:05:29;;;;;;;3.78;3.42;;;11.70;80.90;;;;;;5071871;28;20413;-59
2022/04/10 03:07:55;;;;;;;4.07;3.40;;;11.70;80.90;;;;;;5063992;28;20020;-59
2022/04/10 03:10:20;;;;;;;4.32;3.90;;;11.70;81.00;;;;;;5069925;28;20035;-59
2022/04/10 03:12:46;;;;;;;4.20;3.80;;;11.70;81.10;;;;;;5072102;28;20024;-59
2022/04/10 03:15:11;;;;;;;4.35;3.95;;;11.70;81.10;;;;;;5071994;28;20032;-59
2022/04/10 03:17:37;;;;;;;4.45;4.00;;;11.60;81.10;;;;;;5072069;28;20495;-59
2022/04/10 03:20:03;;;;;;;4.40;4.00;;;11.60;81.20;;;;;;5071864;28;20025;-59
2022/04/10 03:22:29;;;;;;;4.50;4.10;;;11.60;81.30;;;;;;5070660;28;20028;-59
2022/04/10 03:24:54;;;;;;;4.60;4.20;;;11.60;81.40;;;;;;5067922;28;20047;-59
2022/04/10 03:27:20;;;;;;;4.93;4.45;;;11.60;81.50;;;;;;5072952;28;20034;-59
2022/04/10 03:29:46;;;;;;;4.47;4.07;;;11.60;81.60;;;;;;5075622;28;20032;-59
2022/04/10 03:32:11;;;;;;;5.10;4.60;;;11.50;81.60;;;;;;5067727;28;20116;-59
2022/04/10 03:34:37;;;;;;;4.93;4.43;;;11.50;81.60;;;;;;5069826;28;20074;-59
2022/04/10 03:37:02;;;;;;;5.47;4.50;;;11.50;81.60;;;;;;5075523;28;20052;-59
2022/04/10 03:39:28;;;;;;;4.80;4.38;;;11.40;81.70;;;;;;5075668;28;20032;-59
2022/04/10 03:41:54;;;;;;;5.20;4.70;;;11.40;81.90;;;;;;5074600;28;20031;-59
2022/04/10 03:44:19;;;;;;;4.88;4.38;;;11.40;81.90;;;;;;5064738;28;20028;-59
2022/04/10 03:46:45;;;;;;;5.93;4.63;;;11.40;82.10;;;;;;5073759;28;20025;-60
2022/04/10 03:49:10;;;;;;;4.85;4.25;;;11.30;82.20;;;;;;5075408;28;20024;-59
2022/04/10 03:51:36;;;;;;;5.25;4.72;;;11.30;82.30;;;;;;5075444;28;20440;-59
2022/04/10 03:54:02;;;;;;;4.80;4.28;;;11.30;82.40;;;;;;5075398;28;20098;-59
2022/04/10 03:56:27;;;;;;;4.70;4.30;;;11.30;82.50;;;;;;5075306;28;20100;-59
2022/04/10 03:58:53;;;;;;;4.75;4.30;;;11.30;82.60;;;;;;5067597;28;20024;-59
2022/04/10 04:01:18;;;;;;;4.85;4.35;;;11.30;82.90;;;;;;5070690;28;20026;-59
2022/04/10 04:03:44;;;;;;;4.93;4.43;;;11.30;82.80;;;;;;5060727;28;20115;-59
2022/04/10 04:06:10;;;;;;;4.93;4.53;;;11.30;82.70;;;;;;5075110;28;20078;-59
2022/04/10 04:08:36;;;;;;;4.65;4.22;;;11.30;82.80;;;;;;5075078;28;20028;-59
2022/04/10 04:11:01;;;;;;;4.50;4.10;;;11.30;82.80;;;;;;5074998;28;20130;-59
2022/04/10 04:13:27;;;;;;;4.68;4.28;;;11.30;82.80;;;;;;5074998;28;20039;-59
2022/04/10 04:15:52;;;;;;;4.28;3.88;;;11.30;83.00;;;;;;5066080;28;20052;-59
2022/04/10 04:18:18;;;;;;;4.28;3.88;;;11.30;83.10;;;;;;5074501;28;20027;-59
2022/04/10 04:20:43;;;;;;;4.32;3.92;;;11.30;83.00;;;;;;5074935;28;20021;-59
2022/04/10 04:23:09;;;;;;;4.68;4.20;;;11.30;83.10;;;;;;5074800;28;20385;-60
2022/04/10 04:25:35;;;;;;;4.82;4.38;;;11.20;83.10;;;;;;5074897;28;20107;-59
2022/04/10 04:28:00;;;;;;;4.97;4.45;;;11.20;83.20;;;;;;5074584;28;20384;-59
2022/04/10 04:30:26;;;;;;;4.28;3.88;;;11.20;83.30;;;;;;5074773;28;20029;-59
2022/04/10 04:32:51;;;;;;;4.03;3.63;;;11.20;83.50;;;;;;5063796;28;20082;-59
2022/04/10 04:35:17;;;;;;;4.50;4.10;;;11.20;83.50;;;;;;5074778;28;20396;-59
2022/04/10 04:37:42;;;;;;;5.00;4.50;;;11.20;83.60;;;;;;5074242;28;20047;-59
2022/04/10 04:40:09;;;;;;;5.10;4.60;;;11.20;83.50;;;;;;5073387;28;20107;-59
2022/04/10 04:42:35;;;;;;;4.57;4.10;;;11.20;83.60;;;;;;5074492;28;20044;-59
2022/04/10 04:45:01;;;;;;;4.60;4.20;;;11.10;83.70;;;;;;5074360;28;20488;-59
2022/04/10 04:47:26;;;;;;;5.35;4.70;;;11.10;83.90;;;;;;5073098;28;20084;-59
2022/04/10 04:49:54;;;;;;;4.90;4.40;;;11.10;84.00;;;;;;5067699;28;20024;-59
2022/04/10 04:52:19;;;;;;;5.00;4.47;;;11.10;84.10;;;;;;5072972;28;20127;-59
2022/04/10 04:54:45;;;;;;;4.93;4.43;;;11.10;84.00;;;;;;5074552;28;20107;-59
2022/04/10 04:57:10;;;;;;;4.65;4.25;;;11.10;84.00;;;;;;5074298;28;20020;-59
2022/04/10 04:59:36;;;;;;;5.32;4.50;;;11.10;84.00;;;;;;5074203;28;20480;-59
2022/04/10 05:02:01;;;;;;;4.40;4.00;;;11.20;84.00;;;;;;5069925;28;20024;-59
2022/04/10 05:04:27;;;;;;;5.22;4.72;;;11.20;83.90;;;;;;5072886;28;20037;-61
2022/04/10 05:06:52;;;;;;;4.93;4.40;;;11.20;83.90;;;;;;5067525;28;20480;-59
2022/04/10 05:09:18;;;;;;;4.40;4.00;;;11.10;83.90;;;;;;5073966;28;20394;-59
2022/04/10 05:11:44;;;;;;;4.35;3.95;;;11.20;83.90;;;;;;5073902;28;20103;-59
2022/04/10 05:14:09;;;;;;;4.80;4.30;;;11.20;84.00;;;;;;5073924;28;20085;-59
2022/04/10 05:16:35;;;;;;;4.40;4.00;;;11.20;84.60;;;;;;5074027;28;20392;-59
2022/04/10 05:19:00;;;;;;;4.60;4.00;;;11.20;84.00;;;;;;5073842;28;20028;-59
2022/04/10 05:21:26;;;;;;;5.30;4.22;;;11.20;83.90;;;;;;5073823;28;20366;-59
2022/04/10 05:23:51;;;;;;;4.82;4.07;;;11.20;83.90;;;;;;5071622;28;20027;-59
2022/04/10 05:26:17;;;;;;;5.03;4.32;;;11.20;84.20;;;;;;5073777;28;20064;-59
2022/04/10 05:28:42;;;;;;;5.38;4.07;;;11.20;84.00;;;;;;5073811;28;20035;-59
2022/04/10 05:31:08;;;;;;;4.43;4.03;;;11.20;84.10;;;;;;5072931;28;20031;-59
2022/04/10 05:33:35;;;;;;;4.45;3.90;;;11.20;84.20;;;;;;5073528;28;20559;-59
2022/04/10 05:36:01;;;;;;;4.30;3.90;;;11.20;84.50;;;;;;5072128;28;20074;-59
2022/04/10 05:38:27;;;;;;;4.82;4.18;;;11.20;84.40;;;;;;5073364;28;20408;-59
2022/04/10 05:40:53;;;;;;;4.65;4.15;;;11.20;84.40;;;;;;5072570;28;20024;-59
2022/04/10 05:43:22;;;;;;;4.80;4.03;;;11.20;84.30;;;;;;5073142;28;20017;-59
2022/04/10 05:45:49;;;;;;;6.07;4.57;;;11.20;84.40;;;;;;5072989;28;20025;-59
2022/04/10 05:48:14;;;;;;;5.07;4.13;;;11.20;84.40;;;;;;5073016;28;20139;-59
2022/04/10 05:50:40;;;;;;;5.22;4.07;;;11.20;84.30;;;;;;5072388;28;20447;-59
2022/04/10 05:53:06;;;;;;;6.10;4.00;;;11.20;84.30;;;;;;5072754;28;20082;-59
2022/04/10 05:55:32;;;;;;;4.15;3.75;;;11.10;84.30;;;;;;5067285;28;20480;-59
2022/04/10 05:57:58;;;;;;;7.68;4.35;;;11.10;84.30;;;;;;5064322;28;20017;-59
2022/04/10 06:00:24;;;;;;;5.70;3.80;;;11.10;84.30;;;;;;5072062;28;20032;-59
2022/04/10 06:02:50;;;;;;;6.38;3.95;;;11.10;84.30;;;;;;5072842;28;20369;-58
2022/04/10 06:05:18;;;;;;;4.75;3.80;;;11.10;84.30;;;;;;5072616;28;20016;-59
2022/04/10 06:07:43;;;;;;;6.18;4.05;;;11.20;84.40;;;;;;5072686;28;20048;-59
2022/04/10 06:10:09;;;;;;;4.82;4.05;;;11.10;84.50;;;;;;5072378;28;20364;-59
2022/04/10 06:12:35;;;;;;;4.60;3.88;;;11.20;84.60;;;;;;5071817;28;20041;-59
2022/04/10 06:15:00;;;;;;;4.60;3.70;;;11.20;84.80;;;;;;5063693;28;20033;-59
2022/04/10 06:17:26;;;;;;;5.65;4.03;;;11.20;84.80;;;;;;5070321;28;20554;-60
2022/04/10 06:19:52;;;;;;;4.22;3.28;;;11.20;84.60;;;;;;5062761;28;20029;-59
2022/04/10 06:22:18;;;;;;;4.47;3.75;;;11.20;84.50;;;;;;5070988;28;20023;-59
2022/04/10 06:24:43;;;;;;;4.88;3.78;;;11.30;84.30;;;;;;5072499;28;20020;-59
2022/04/10 06:27:09;;;;;;;5.15;4.05;;;11.30;84.20;;;;;;5072128;28;20024;-59
2022/04/10 06:29:34;;;;;;;4.50;3.38;;;11.30;84.10;;;;;;5071960;28;20024;-59
2022/04/10 06:32:00;;;;;;;4.88;3.40;;;11.30;84.10;;;;;;5065774;28;20032;-59
2022/04/10 06:34:25;;;;;;;4.65;3.40;;;11.30;84.10;;;;;;5072262;28;20031;-59
2022/04/10 06:36:51;;;;;;;5.75;3.83;;;11.30;84.00;;;;;;5071950;28;20025;-59
2022/04/10 06:39:16;;;;;;;4.13;3.72;;;11.30;84.00;;;;;;5072114;28;20029;-58
2022/04/10 06:41:43;;;;;;;6.07;3.42;;;11.30;84.10;;;;;;5071225;28;20055;-59
2022/04/10 06:44:08;;;;;;;5.70;3.60;;;11.30;84.20;;;;;;5072307;28;20528;-59
2022/04/10 06:46:34;;;;;;;4.07;3.20;;;11.40;84.30;;;;;;5072080;28;20107;-59
2022/04/10 06:49:00;;;;;;;4.18;3.38;;;11.40;84.00;;;;;;5066907;28;20384;-59
2022/04/10 06:51:26;;;;;;;7.05;3.58;;;11.40;83.80;;;;;;5072188;28;20036;-61
2022/04/10 06:53:52;;;;;;;5.43;3.67;;;11.40;83.50;;;;;;5072291;28;20036;-59
2022/04/10 06:56:17;;;;;;;4.70;3.40;;;11.50;83.30;;;;;;5070920;28;20031;-59
2022/04/10 06:58:43;;;;;;;4.00;3.15;;;11.50;83.20;;;;;;5071853;28;20490;-59
2022/04/10 07:01:09;;;;;;;5.00;3.58;;;11.50;83.00;;;;;;5070437;28;20487;-59
2022/04/10 07:03:34;;;;;;;3.83;3.42;;;11.50;82.70;;;;;;5055455;28;20036;-59
2022/04/10 07:06:00;;;;;;;4.50;3.45;;;11.50;82.50;;;;;;5063060;28;20017;-59
2022/04/10 07:08:27;;;;;;;3.33;2.95;;;11.50;82.30;;;;;;5067915;28;20021;-59
2022/04/10 07:10:53;;;;;;;3.03;2.70;;;11.40;82.00;;;;;;5072058;28;20104;-59
2022/04/10 07:13:20;;;;;;;3.13;2.83;;;11.40;81.20;;;;;;5072303;28;20578;-61
2022/04/10 07:15:50;;;;;;;3.78;3.03;;;11.40;80.80;;;;;;5070941;28;20082;-59
2022/04/10 07:18:16;;;;;;;2.85;2.60;;;11.50;80.40;;;;;;5072117;28;20024;-59
2022/04/10 07:20:42;;;;;;;3.38;2.80;;;11.50;80.30;;;;;;5072099;28;20024;-59
2022/04/10 07:25:53;;;;;;;3.20;2.90;;;11.50;79.40;;;;;;5072130;28;20027;-58
2022/04/10 07:28:22;;;;;;;3.25;2.95;;;11.50;79.50;;;;;;5071547;28;20012;-59
2022/04/10 07:30:48;;;;;;;3.22;2.92;;;11.60;79.60;;;;;;5066065;28;20025;-59
2022/04/10 07:33:13;;;;;;;2.83;2.63;;;11.60;79.20;;;;;;5068437;28;20081;-59
2022/04/10 07:35:40;;;;;;;3.22;2.63;;;11.60;79.10;;;;;;5069776;28;20125;-59
2022/04/10 07:38:06;;;;;;;4.03;3.30;;;11.60;79.10;;;;;;5056327;28;20059;-61
2022/04/10 07:40:36;;;;;;;3.60;3.30;;;11.70;79.50;;;;;;5065804;28;20028;-59
2022/04/10 07:43:01;;;;;;;3.42;3.13;;;11.70;79.60;;;;;;5071349;28;20457;-59
2022/04/10 07:48:12;;;;;;;4.30;3.90;;;11.70;79.30;;;;;;5071720;28;20078;-59
2022/04/10 07:50:38;;;;;;;3.90;3.50;;;11.70;79.30;;;;;;5070210;28;20028;-59
2022/04/10 07:53:04;;;;;;;3.50;3.13;;;11.60;79.30;;;;;;5071187;28;20396;-59
2022/04/10 07:55:30;;;;;;;3.45;3.10;;;11.60;79.20;;;;;;5071486;28;20036;-59
2022/04/10 07:57:55;;;;;;;3.38;3.00;;;11.70;79.20;;;;;;5059676;28;20039;-59
2022/04/10 08:00:21;;;;;;;3.15;2.90;;;11.60;79.10;;;;;;5071202;28;20024;-59
2022/04/10 08:02:48;;;;;;;4.10;3.58;;;11.60;79.00;;;;;;5057386;28;20031;-59
2022/04/10 08:05:14;;;;;;;3.50;3.20;;;11.60;78.90;;;;;;5071411;28;20035;-59
2022/04/10 08:07:46;;;;;;;3.03;2.83;;;11.60;79.10;;;;;;5070205;28;20021;-59
2022/04/10 08:10:12;;;;;;;3.38;3.08;;;11.60;79.10;;;;;;5068853;28;20426;-59
2022/04/10 08:12:39;;;;;;;3.55;3.25;;;11.60;79.30;;;;;;5071352;28;20178;-59
2022/04/10 08:15:05;;;;;;;3.60;3.13;;;11.60;79.40;;;;;;5065134;28;20429;-59
2022/04/10 08:17:31;;;;;;;3.30;3.00;;;11.60;79.40;;;;;;5073441;28;20373;-58
2022/04/10 08:19:57;;;;;;;3.00;2.80;;;11.60;79.30;;;;;;5074734;28;20103;-59
2022/04/10 08:22:26;;;;;;;3.30;3.00;;;11.60;79.20;;;;;;5074739;28;20553;-59
2022/04/10 08:24:53;;;;;;;4.10;3.20;;;11.60;79.40;;;;;;5075017;28;20162;-60
2022/04/10 08:27:19;;;;;;;3.33;3.03;;;11.50;79.30;;;;;;5074626;28;20017;-60
2022/04/10 08:29:45;;;;;;;2.75;2.55;;;11.50;79.10;;;;;;5074643;28;20028;-59
2022/04/10 08:32:11;;;;;;;2.80;2.60;;;11.50;79.20;;;;;;5058800;28;20028;-59
2022/04/10 08:34:36;;;;;;;3.25;2.92;;;11.50;79.20;;;;;;5074616;28;20037;-59
2022/04/10 08:37:05;;;;;;;3.33;3.03;;;11.40;79.10;;;;;;5074288;28;20048;-59
2022/04/10 08:39:34;;;;;;;3.65;3.00;;;11.40;79.20;;;;;;5074102;28;20137;-59
2022/04/10 08:42:03;;;;;;;3.75;3.25;;;11.40;79.40;;;;;;5074268;28;20383;-59
2022/04/10 08:44:30;;;;;;;3.63;3.33;;;11.40;79.50;;;;;;5072271;28;20115;-59
2022/04/10 08:46:56;;;;;;;5.55;4.32;;;11.30;79.40;;;;;;5071810;28;20052;-59
2022/04/10 08:49:24;;;;;;;5.25;4.65;;;11.30;79.50;;;;;;5074088;28;20043;-59
2022/04/10 08:51:51;;;;;;;4.40;4.00;;;11.20;79.50;;;;;;5073826;28;20036;-59
2022/04/10 08:54:19;;;;;;;5.60;4.50;;;11.20;79.70;;;;;;5074492;28;20025;-59
2022/04/10 08:56:44;;;;;;;3.80;3.45;;;11.10;79.90;;;;;;5074361;28;20024;-59
2022/04/10 08:59:10;;;;;;;4.53;4.13;;;11.10;80.10;;;;;;5074384;28;20367;-59
2022/04/10 09:01:36;;;;;;;5.47;4.93;;;11.00;80.20;;;;;;5073043;28;20024;-59
2022/04/10 09:04:01;;;;;;;3.95;3.58;;;11.00;80.30;;;;;;5073504;28;20021;-59
2022/04/10 09:06:27;;;;;;;3.88;3.50;;;11.00;80.30;;;;;;5067997;28;20464;-59
2022/04/10 09:09:10;;;;;;;3.90;3.42;;;11.00;80.30;;;;;;5074126;28;20028;-59
2022/04/10 09:11:39;;;;;;;4.20;3.35;;;10.90;80.40;;;;;;5073342;28;20166;-59
2022/04/10 09:14:05;;;;;;;3.50;3.20;;;10.80;80.60;;;;;;5067160;28;20077;-59
2022/04/10 09:16:31;;;;;;;3.85;3.45;;;10.80;80.90;;;;;;5065275;28;20021;-59
2022/04/10 09:19:00;;;;;;;4.00;3.60;;;10.80;80.90;;;;;;5073027;28;20020;-59
2022/04/10 09:21:30;;;;;;;3.88;3.50;;;10.80;81.00;;;;;;5069888;28;20021;-59
2022/04/10 09:24:04;;;;;;;4.25;3.53;;;10.80;81.10;;;;;;5071875;28;20108;-59
2022/04/10 09:26:44;;;;;;;5.07;3.80;;;10.70;81.30;;;;;;5073567;28;20024;-59
2022/04/10 09:29:10;;;;;;;3.80;3.50;;;10.70;81.70;;;;;;5073526;28;20036;-59
2022/04/10 09:31:36;;;;;;;4.60;3.83;;;10.70;82.80;;;;;;5072945;28;20119;-59
2022/04/10 09:34:06;;;;;;;4.38;3.97;;;10.70;82.40;;;;;;5073763;28;20064;-59
2022/04/10 09:36:43;;;;;;;4.15;3.67;;;10.70;82.50;;;;;;5073564;28;20021;-59
2022/04/10 09:39:29;;;;;;;5.43;4.05;;;10.70;82.70;;;;;;5063874;28;20037;-59
2022/04/10 09:42:08;;;;;;;4.78;4.28;;;10.70;82.80;;;;;;5061148;28;20024;-59
2022/04/10 09:44:39;;;;;;;5.90;5.10;;;10.60;82.90;;;;;;5068198;28;20035;-59
2022/04/10 09:47:32;;;;;;;5.23;4.73;;;10.60;83.10;;;;;;5063739;28;20033;-60
2022/04/10 09:50:43;;;;;;;4.35;3.95;;;10.60;82.90;;;;;;5068467;28;20056;-60
2022/04/10 09:53:14;;;;;;;3.83;3.42;;;10.60;83.10;;;;;;5036109;28;20055;-60
2022/04/10 09:55:41;;;;;;;4.30;3.88;;;10.60;83.60;;;;;;5057319;28;20048;-59
2022/04/10 09:58:11;;;;;;;4.57;3.70;;;10.60;83.80;;;;;;5070625;28;20036;-60
2022/04/10 10:00:46;;;;;;;3.83;3.53;;;10.60;83.90;;;;;;5063890;28;20025;-59
2022/04/10 10:03:14;;;;;;;4.03;3.63;;;10.60;84.00;;;;;;5052806;28;20075;-58
2022/04/10 10:05:40;;;;;;;3.60;3.30;;;10.60;84.20;;;;;;5064808;28;20043;-59
2022/04/10 10:08:07;;;;;;;5.03;4.43;;;10.60;84.20;;;;;;5070360;28;20384;-59
2022/04/10 10:10:37;;;;;;;4.22;3.83;;;10.60;84.10;;;;;;5059167;28;20036;-60
2022/04/10 10:13:05;;;;;;;5.13;4.10;;;10.60;83.90;;;;;;5066665;28;20052;-59
2022/04/10 10:15:32;;;;;;;4.45;4.03;;;10.50;84.00;;;;;;5070301;28;20033;-60
2022/04/10 10:18:01;;;;;;;4.55;4.10;;;10.50;84.10;;;;;;5070104;28;20571;-60
2022/04/10 10:20:28;;;;;;;5.47;4.50;;;10.50;84.10;;;;;;5070150;28;20389;-60
2022/04/10 10:22:54;;;;;;;4.80;4.30;;;10.50;84.20;;;;;;5070502;28;20029;-60
2022/04/10 10:25:46;;;;;;;5.43;4.70;;;10.50;84.20;;;;;;5072503;28;20032;-60
2022/04/10 10:28:40;;;;;;;5.60;4.55;;;10.50;83.90;;;;;;5069017;28;20036;-60
2022/04/10 10:31:21;;;;;;;6.18;4.65;;;10.50;83.90;;;;;;5071383;28;20083;-60
2022/04/10 10:33:51;;;;;;;5.15;4.65;;;10.50;84.10;;;;;;5072442;28;20031;-59
2022/04/10 10:36:22;;;;;;;5.25;4.68;;;10.50;84.10;;;;;;5072185;28;20056;-60
2022/04/10 10:38:51;;;;;;;4.43;3.90;;;10.50;83.80;;;;;;5071842;28;20109;-60
2022/04/10 10:41:16;;;;;;;4.88;4.47;;;10.50;83.80;;;;;;5069884;28;20021;-60
2022/04/10 10:43:42;;;;;;;4.90;4.45;;;10.50;83.80;;;;;;5070908;28;20028;-60
2022/04/10 10:46:34;;;;;;;4.68;4.15;;;10.50;83.90;;;;;;5070587;28;20444;-60
2022/04/10 10:49:17;;;;;;;;;;;10.60;83.70;;;;;;5065313;28;20020;-60
2022/04/10 10:51:47;;;;;;;4.65;4.22;;;10.50;83.60;;;;;;5060001;28;19915;-59
2022/04/10 10:54:34;;;;;;;5.80;5.07;;;10.50;83.90;;;;;;5072446;28;20025;-59
2022/04/10 10:57:22;;;;;;;5.03;4.45;;;10.50;83.70;;;;;;5072307;28;20119;-59
2022/04/10 10:59:51;;;;;;;4.55;4.10;;;10.50;83.60;;;;;;5059209;28;20028;-59
2022/04/10 11:02:19;;;;;;;4.50;4.10;;;10.50;83.90;;;;;;5072443;28;20025;-59
2022/04/10 11:04:47;;;;;;;4.78;4.38;;;10.50;84.40;;;;;;5064086;28;20103;-59
2022/04/10 11:07:20;;;;;;;4.82;4.32;;;10.50;83.70;;;;;;5072359;28;20017;-59
2022/04/10 11:09:59;;;;;;;5.40;4.90;;;10.60;83.80;;;;;;5072404;28;20070;-59
2022/04/10 11:12:48;;;;;;;4.35;3.95;;;10.60;83.80;;;;;;5072330;28;20032;-59
2022/04/10 11:15:21;;;;;;;5.50;4.40;;;10.60;83.60;;;;;;5071507;28;20029;-59
2022/04/10 11:17:47;;;;;;;4.82;4.30;;;10.60;84.00;;;;;;5072219;28;20024;-59
2022/04/10 11:20:16;;;;;;;5.03;4.53;;;10.70;84.10;;;;;;5069838;28;20066;-59
2022/04/10 11:22:49;;;;;;;5.00;4.55;;;10.70;83.90;;;;;;5070475;28;20079;-59
2022/04/10 11:25:20;;;;;;;5.20;4.70;;;10.70;83.70;;;;;;5072246;28;20036;-59
2022/04/10 11:27:50;;;;;;;4.47;4.07;;;10.70;83.80;;;;;;5072127;28;20024;-59
2022/04/10 11:30:20;;;;;;;4.60;4.20;;;10.80;83.90;;;;;;5072276;28;20499;-59
2022/04/10 11:33:02;;;;;;;4.75;4.30;;;10.80;84.00;;;;;;5072196;28;20056;-59
2022/04/10 11:35:35;;;;;;;5.50;4.53;;;10.80;84.30;;;;;;5059841;28;20107;-59
2022/04/10 11:38:03;;;;;;;5.95;5.32;;;10.80;84.10;;;;;;5066193;28;20044;-59
2022/04/10 11:40:37;;;;;;;8.68;7.22;;;10.80;84.10;;;;;;5063316;28;20380;-59
2022/04/10 11:43:04;;;;;;;7.38;6.20;;;10.80;84.10;;;;;;5071848;28;20365;-59
2022/04/10 11:45:31;;;;;;;6.45;5.65;;;10.90;84.00;;;;;;5068532;28;20032;-59
2022/04/10 11:47:58;;;;;;;7.85;7.05;;;10.90;84.20;;;;;;5071073;28;20429;-59
2022/04/10 11:50:25;;;;;;;6.18;5.47;;;10.90;83.80;;;;;;5075623;28;20025;-59
2022/04/10 11:53:11;;;;;;;5.50;5.00;;;10.90;83.80;;;;;;5075630;28;20028;-59
2022/04/10 11:55:46;;;;;;;6.50;4.80;;;11.00;83.80;;;;;;5073390;28;20056;-59
2022/04/10 11:58:16;;;;;;;5.75;4.85;;;10.90;84.00;;;;;;5075444;28;20020;-59
2022/04/10 12:00:56;;;;;;;4.75;4.35;;;11.00;84.20;;;;;;5075621;28;20475;-59
2022/04/10 12:03:26;;;;;;;5.07;4.57;;;11.00;84.00;;;;;;5075575;28;20017;-59
2022/04/10 12:05:53;;;;;;;4.90;4.50;;;11.00;83.90;;;;;;5075435;28;20480;-59
2022/04/10 12:08:20;;;;;;;4.55;4.15;;;11.00;83.80;;;;;;5075355;28;20029;-59
2022/04/10 12:10:56;;;;;;;4.47;4.07;;;11.00;83.70;;;;;;5075242;28;20025;-59
2022/04/10 12:13:29;;;;;;;4.82;4.32;;;11.00;83.40;;;;;;5074775;28;20472;-59
2022/04/10 12:16:16;;;;;;;5.45;4.60;;;11.10;84.60;;;;;;5074251;28;20468;-60
2022/04/10 12:18:49;;;;;;;5.20;4.70;;;11.10;83.50;;;;;;5075115;28;20043;-59
2022/04/10 12:21:16;;;;;;;5.15;4.65;;;11.10;83.80;;;;;;5075161;28;20028;-59
2022/04/10 12:23:42;;;;;;;4.68;4.28;;;11.10;83.60;;;;;;5065733;28;20061;-59
2022/04/10 12:26:07;;;;;;;7.78;4.68;;;11.10;83.30;;;;;;5065177;28;20439;-59
2022/04/10 12:28:33;;;;;;;4.60;4.20;;;11.10;83.30;;;;;;5068511;28;20039;-59
2022/04/10 12:31:03;;;;;;;5.25;4.55;;;11.10;83.20;;;;;;5073136;28;20021;-59
2022/04/10 12:33:29;;;;;;;5.18;4.18;;;11.10;83.40;;;;;;5063093;28;20017;-59
2022/04/10 12:35:55;;;;;;;4.30;3.85;;;11.10;83.30;;;;;;5071953;28;20027;-59
2022/04/10 12:38:26;;;;;;;4.32;3.92;;;11.10;83.30;;;;;;5074707;28;20041;-59
2022/04/10 12:41:05;;;;;;;5.25;3.97;;;11.10;83.20;;;;;;5074585;28;20041;-59
2022/04/10 12:43:30;;;;;;;4.10;3.70;;;11.10;83.00;;;;;;5072900;28;20549;-59
2022/04/10 12:46:09;;;;;;;4.40;4.00;;;11.20;83.20;;;;;;5059222;28;20029;-59
2022/04/10 12:48:34;;;;;;;3.50;3.20;;;11.20;82.90;;;;;;5073325;28;20021;-58
2022/04/10 12:51:11;;;;;;;4.30;3.90;;;11.20;82.70;;;;;;5074676;28;20495;-59
2022/04/10 12:53:38;;;;;;;3.65;3.20;;;11.30;82.70;;;;;;5074513;28;20021;-59
2022/04/10 12:56:17;;;;;;;3.60;3.30;;;11.30;82.60;;;;;;5074928;28;20028;-58